Time;durP1;ratioP1;P1;durP2;ratioP2;P2;SDS_P1;SDS_P2;PMS_P1;PMS_P2;Temp;Humidity;BMP_temperature;BMP_pressure;BME280_temperature;BME280_humidity;BME280_pressure;Samples;Min_cycle;Max_cycle;Signal;HPM_P1;HPM_P2
2023/01/19 00:01:08;;;;;;;27.63;12.98;;;;;;;0.85;100.00;100092.66;5021485;28;20144;-68
2023/01/19 00:03:34;;;;;;;23.67;12.68;;;;;;;0.86;100.00;100093.53;5023096;28;20487;-68
2023/01/19 00:06:04;;;;;;;28.17;13.35;;;;;;;0.85;100.00;100090.09;5024100;28;20025;-68
2023/01/19 00:08:29;;;;;;;24.45;13.18;;;;;;;0.86;100.00;100091.84;5023690;28;20387;-68
2023/01/19 00:10:54;;;;;;;23.15;12.48;;;;;;;0.87;100.00;100090.19;5023062;28;20025;-68
2023/01/19 00:13:20;;;;;;;25.70;13.63;;;;;;;0.91;100.00;100096.31;5024417;28;20021;-68
2023/01/19 00:15:46;;;;;;;24.52;12.32;;;;;;;0.89;100.00;100097.94;5024357;28;20290;-68
2023/01/19 00:18:11;;;;;;;24.98;12.82;;;;;;;0.88;100.00;100097.03;5023910;28;20037;-68
2023/01/19 00:20:38;;;;;;;23.67;12.52;;;;;;;0.88;100.00;100101.31;5022389;28;20029;-68
2023/01/19 00:23:04;;;;;;;24.85;13.05;;;;;;;0.90;100.00;100102.25;5023370;28;20044;-68
2023/01/19 00:25:29;;;;;;;23.73;13.18;;;;;;;0.89;100.00;100098.81;5022309;28;20030;-68
2023/01/19 00:27:54;;;;;;;25.80;13.05;;;;;;;0.89;99.84;100108.22;5023923;28;20041;-67
2023/01/19 00:30:19;;;;;;;24.85;13.10;;;;;;;0.90;99.99;100107.38;5023166;28;20079;-68
2023/01/19 00:32:45;;;;;;;25.00;12.88;;;;;;;0.90;100.00;100110.84;5023795;28;20048;-68
2023/01/19 00:35:10;;;;;;;23.42;12.60;;;;;;;0.90;100.00;100118.53;5021269;28;20033;-67
2023/01/19 00:37:35;;;;;;;25.13;13.45;;;;;;;0.92;100.00;100118.63;5022190;28;20026;-68
2023/01/19 00:40:01;;;;;;;25.70;13.18;;;;;;;0.92;100.00;100116.91;5022488;28;20044;-67
2023/01/19 00:42:46;;;;;;;23.45;12.50;;;;;;;0.92;100.00;100111.78;5020426;28;20058;-67
2023/01/19 00:45:14;;;;;;;23.80;12.98;;;;;;;0.94;100.00;100117.91;5020709;28;20033;-67
2023/01/19 00:47:40;;;;;;;21.98;12.65;;;;;;;0.93;100.00;100102.41;5022995;28;20022;-67
2023/01/19 00:50:07;;;;;;;25.73;12.73;;;;;;;0.94;100.00;100105.06;5017084;28;20029;-67
2023/01/19 00:52:33;;;;;;;23.63;13.10;;;;;;;0.95;100.00;100100.81;5018872;28;20051;-67
2023/01/19 00:54:58;;;;;;;24.17;12.77;;;;;;;0.94;100.00;100096.47;5022656;28;20396;-67
2023/01/19 00:57:23;;;;;;;25.90;12.52;;;;;;;0.94;99.93;100091.34;5021824;28;20053;-67
2023/01/19 00:59:49;;;;;;;27.17;12.43;;;;;;;0.93;100.00;100099.84;5021181;28;20107;-67
2023/01/19 01:02:14;;;;;;;23.95;12.63;;;;;;;0.91;100.00;100093.75;5022157;28;20084;-67
2023/01/19 01:04:39;;;;;;;25.55;13.30;;;;;;;0.88;99.68;100098.75;5021459;28;20056;-67
2023/01/19 01:07:05;;;;;;;23.80;12.65;;;;;;;0.85;100.00;100097.78;5022830;28;20103;-67
2023/01/19 01:09:30;;;;;;;24.52;12.13;;;;;;;0.84;100.00;100101.16;5022368;28;20025;-67
2023/01/19 01:11:56;;;;;;;22.73;11.82;;;;;;;0.85;100.00;100102.94;5023428;28;20508;-67
2023/01/19 01:14:22;;;;;;;24.77;12.90;;;;;;;0.85;100.00;100096.91;5027499;28;20391;-67
2023/01/19 01:16:48;;;;;;;24.65;12.45;;;;;;;0.83;99.84;100107.06;5026451;28;20057;-67
2023/01/19 01:19:14;;;;;;;21.33;12.05;;;;;;;0.85;99.97;100105.50;5026190;28;20033;-67
2023/01/19 01:21:40;;;;;;;26.25;12.52;;;;;;;0.84;100.00;100097.69;5027119;28;20033;-67
2023/01/19 01:24:06;;;;;;;24.83;11.85;;;;;;;0.86;99.60;100104.66;5027506;28;20387;-67
2023/01/19 01:26:31;;;;;;;24.25;11.98;;;;;;;0.86;99.87;100117.50;5027351;28;20037;-67
2023/01/19 01:28:56;;;;;;;22.98;11.88;;;;;;;0.88;99.98;100116.69;5026697;28;20022;-67
2023/01/19 01:31:22;;;;;;;21.48;11.90;;;;;;;0.88;100.00;100112.44;5026573;28;20068;-67
2023/01/19 01:33:47;;;;;;;24.25;12.45;;;;;;;0.92;99.24;100113.47;5026666;28;20025;-67
2023/01/19 01:36:12;;;;;;;20.20;11.02;;;;;;;0.94;99.29;100117.91;5026792;28;20021;-67
2023/01/19 01:38:41;;;;;;;20.63;10.77;;;;;;;0.97;99.91;100107.78;5025516;28;20040;-67
2023/01/19 01:41:07;;;;;;;19.52;10.63;;;;;;;0.99;99.04;100107.84;5023553;28;20029;-67
2023/01/19 01:43:55;;;;;;;23.98;11.98;;;;;;;1.01;99.85;100113.94;5024607;28;20041;-67
2023/01/19 01:46:21;;;;;;;19.85;10.38;;;;;;;1.03;98.85;100117.47;5026148;28;20033;-67
2023/01/19 01:48:53;;;;;;;21.48;11.13;;;;;;;1.03;99.61;100108.09;5024975;28;20048;-68
2023/01/19 01:51:31;;;;;;;20.58;10.95;;;;;;;1.07;99.09;100114.22;5024376;28;20033;-67
2023/01/19 01:54:21;;;;;;;21.35;10.80;;;;;;;1.10;99.03;100119.53;5026245;28;20115;-67
2023/01/19 01:56:51;;;;;;;22.33;11.38;;;;;;;1.10;99.48;100119.53;5025272;28;20108;-67
2023/01/19 01:59:24;;;;;;;;;;;;;;;1.12;99.43;100128.19;5024316;28;20079;-67
2023/01/19 02:04:37;;;;;;;20.40;10.23;;;;;;;1.02;100.00;100123.41;5025838;28;20045;-67
2023/01/19 02:15:17;;;;;;;18.63;9.23;;;;;;;0.68;100.00;100129.34;5026145;28;20123;-67
2023/01/19 02:17:43;;;;;;;18.75;9.95;;;;;;;0.58;100.00;100125.47;5042468;28;20044;-67
2023/01/19 02:20:09;;;;;;;21.95;9.93;;;;;;;0.52;100.00;100128.59;5025107;28;20045;-67
2023/01/19 02:22:43;;;;;;;21.25;10.75;;;;;;;0.48;100.00;100136.03;5025681;28;20049;-67
2023/01/19 02:25:09;;;;;;;21.02;9.75;;;;;;;0.44;100.00;100136.69;5024979;28;20039;-67
2023/01/19 02:27:36;;;;;;;17.42;9.45;;;;;;;0.44;100.00;100140.09;5026137;28;20026;-67
2023/01/19 02:30:02;;;;;;;19.40;9.57;;;;;;;0.43;100.00;100143.47;5025692;28;20021;-67
2023/01/19 02:32:28;;;;;;;20.92;10.20;;;;;;;0.43;100.00;100142.59;5024467;28;20029;-67
2023/01/19 02:34:54;;;;;;;21.35;9.95;;;;;;;0.42;100.00;100146.84;5025621;28;20028;-67
2023/01/19 02:37:20;;;;;;;24.02;10.90;;;;;;;0.44;100.00;100141.81;5025697;28;20034;-67
2023/01/19 02:39:56;;;;;;;20.17;10.10;;;;;;;0.45;100.00;100151.22;5023261;28;20227;-67
2023/01/19 02:42:28;;;;;;;21.67;10.82;;;;;;;0.44;100.00;100145.22;5022754;28;20435;-67
2023/01/19 02:44:55;;;;;;;21.77;11.02;;;;;;;0.44;100.00;100152.06;5024214;28;20021;-67
2023/01/19 02:47:21;;;;;;;21.10;11.52;;;;;;;0.41;100.00;100145.06;5024234;28;20156;-67
2023/01/19 02:49:55;;;;;;;20.80;11.30;;;;;;;0.37;100.00;100153.41;5024075;28;20091;-67
2023/01/19 02:52:20;;;;;;;22.98;11.88;;;;;;;0.33;100.00;100157.50;5024420;28;20064;-67
2023/01/19 02:55:11;;;;;;;22.75;11.68;;;;;;;0.31;100.00;100163.31;5022774;28;20354;-67
2023/01/19 02:57:57;;;;;;;21.13;11.73;;;;;;;0.25;100.00;100158.75;5024059;28;20025;-67
2023/01/19 03:00:33;;;;;;;23.65;12.48;;;;;;;0.21;100.00;100166.19;5024558;28;20187;-67
2023/01/19 03:03:29;;;;;;;22.38;11.95;;;;;;;0.16;100.00;100171.94;5024286;28;20030;-67
2023/01/19 03:06:28;;;;;;;22.80;12.15;;;;;;;0.13;100.00;100164.09;5022512;28;20039;-67
2023/01/19 03:09:01;;;;;;;23.20;12.60;;;;;;;0.08;100.00;100169.78;4985527;28;20046;-67
2023/01/19 03:11:32;;;;;;;22.63;12.40;;;;;;;0.06;100.00;100177.38;5024119;28;20243;-67
2023/01/19 03:14:05;;;;;;;24.80;13.10;;;;;;;0.03;100.00;100177.22;5024172;28;20047;-67
2023/01/19 03:16:33;;;;;;;23.70;12.75;;;;;;;0.00;100.00;100187.28;5024554;28;20038;-67
2023/01/19 03:19:08;;;;;;;26.00;13.20;;;;;;;-0.01;100.00;100175.28;5023551;28;20037;-67
2023/01/19 03:21:36;;;;;;;26.55;14.20;;;;;;;-0.03;100.00;100179.41;5025155;28;20056;-67
2023/01/19 03:24:05;;;;;;;25.02;14.52;;;;;;;-0.02;100.00;100188.88;5024568;28;20399;-67
2023/01/19 03:26:37;;;;;;;27.98;14.35;;;;;;;-0.03;100.00;100193.13;5024883;28;20036;-67
2023/01/19 03:29:06;;;;;;;26.95;15.38;;;;;;;-0.03;100.00;100188.00;5024302;28;20037;-67
2023/01/19 03:31:32;;;;;;;23.87;13.67;;;;;;;-0.04;100.00;100191.34;5024485;28;20033;-67
2023/01/19 03:34:02;;;;;;;28.25;15.65;;;;;;;-0.06;100.00;100186.94;5023541;28;20107;-67
2023/01/19 03:36:40;;;;;;;26.23;14.88;;;;;;;-0.10;100.00;100196.13;5023731;28;20029;-65
2023/01/19 03:39:08;;;;;;;25.25;14.60;;;;;;;-0.13;100.00;100195.97;5023689;28;20687;-65
2023/01/19 03:41:35;;;;;;;25.20;14.48;;;;;;;-0.14;100.00;100198.44;5023271;28;20037;-65
2023/01/19 03:44:04;;;;;;;25.02;13.75;;;;;;;-0.15;100.00;100196.66;5021665;28;20439;-65
2023/01/19 03:46:30;;;;;;;24.67;13.82;;;;;;;-0.18;100.00;100195.69;5023173;28;20025;-65
2023/01/19 03:48:56;;;;;;;23.52;13.40;;;;;;;-0.18;100.00;100205.91;5024555;28;20463;-65
2023/01/19 03:51:21;;;;;;;22.55;13.25;;;;;;;-0.22;100.00;100209.13;5023765;28;20040;-65
2023/01/19 03:53:48;;;;;;;21.80;12.45;;;;;;;-0.21;100.00;100207.44;5023936;28;20508;-65
2023/01/19 03:56:20;;;;;;;21.48;12.07;;;;;;;-0.23;100.00;100214.16;5024086;28;20112;-65
2023/01/19 03:58:46;;;;;;;21.20;12.40;;;;;;;-0.24;100.00;100228.63;5023159;28;20511;-65
2023/01/19 04:01:12;;;;;;;22.27;12.57;;;;;;;-0.23;100.00;100229.53;5023655;28;20029;-65
2023/01/19 04:03:38;;;;;;;25.10;12.23;;;;;;;-0.23;100.00;100235.53;5023311;28;20112;-65
2023/01/19 04:06:03;;;;;;;20.95;12.38;;;;;;;-0.24;100.00;100236.31;5020736;28;20132;-65
2023/01/19 04:08:28;;;;;;;19.70;11.38;;;;;;;-0.23;100.00;100239.78;5022095;28;20021;-66
2023/01/19 04:10:56;;;;;;;18.98;10.55;;;;;;;-0.22;100.00;100247.53;5022049;28;20541;-65
2023/01/19 04:13:22;;;;;;;18.27;10.40;;;;;;;-0.24;100.00;100241.44;5021879;28;20029;-66
2023/01/19 04:15:47;;;;;;;16.25;10.00;;;;;;;-0.24;100.00;100249.09;5022289;28;20040;-66
2023/01/19 04:18:12;;;;;;;15.50;9.48;;;;;;;-0.26;100.00;100248.16;5021070;28;20025;-65
2023/01/19 04:20:38;;;;;;;13.35;8.82;;;;;;;-0.26;100.00;100250.72;5023364;28;20021;-65
2023/01/19 04:23:04;;;;;;;14.30;8.50;;;;;;;-0.26;100.00;100250.72;5021814;28;20104;-65
2023/01/19 04:25:29;;;;;;;15.15;8.70;;;;;;;-0.26;100.00;100265.16;5019692;28;20199;-65
2023/01/19 04:27:56;;;;;;;15.82;9.38;;;;;;;-0.28;100.00;100259.97;5023192;28;20663;-65
2023/01/19 04:30:22;;;;;;;14.02;8.45;;;;;;;-0.30;100.00;100253.88;5022025;28;20399;-65
2023/01/19 04:32:47;;;;;;;13.52;7.60;;;;;;;-0.30;100.00;100261.56;5021937;28;20048;-65
2023/01/19 04:35:12;;;;;;;12.98;7.10;;;;;;;-0.30;100.00;100264.13;5021773;28;20120;-65
2023/01/19 04:37:37;;;;;;;10.93;6.40;;;;;;;-0.30;100.00;100274.38;5022529;28;20025;-68
2023/01/19 04:40:03;;;;;;;10.45;6.22;;;;;;;-0.32;100.00;100270.81;5021584;28;20030;-68
2023/01/19 04:42:28;;;;;;;10.10;5.72;;;;;;;-0.34;100.00;100277.53;5022215;28;20083;-68
2023/01/19 04:44:54;;;;;;;9.57;5.53;;;;;;;-0.36;100.00;100279.13;5021890;28;20091;-68
2023/01/19 04:47:19;;;;;;;9.60;5.60;;;;;;;-0.36;100.00;100279.13;5021112;28;20029;-69
2023/01/19 04:49:44;;;;;;;7.70;4.43;;;;;;;-0.35;100.00;100283.44;5017176;28;20021;-68
2023/01/19 04:52:10;;;;;;;7.97;4.85;;;;;;;-0.36;100.00;100274.00;5019184;28;20467;-68
2023/01/19 04:54:35;;;;;;;7.65;4.40;;;;;;;-0.35;100.00;100260.41;5022131;28;20079;-68
2023/01/19 04:57:00;;;;;;;7.45;4.40;;;;;;;-0.35;100.00;100250.16;5021947;28;20083;-68
2023/01/19 04:59:25;;;;;;;8.35;4.60;;;;;;;-0.34;100.00;100239.13;5023001;28;20206;-68
2023/01/19 05:01:51;;;;;;;7.57;4.40;;;;;;;-0.33;100.00;100228.13;5020723;28;20525;-68
2023/01/19 05:04:16;;;;;;;8.77;4.80;;;;;;;-0.32;100.00;100227.28;5023184;28;20026;-68
2023/01/19 05:06:42;;;;;;;7.78;4.68;;;;;;;-0.29;100.00;100222.38;5021247;28;20033;-68
2023/01/19 05:09:07;;;;;;;9.00;5.03;;;;;;;-0.26;100.00;100219.09;5021147;28;20026;-68
2023/01/19 05:11:34;;;;;;;9.18;5.45;;;;;;;-0.24;100.00;100222.63;5021915;28;20491;-68
2023/01/19 05:13:59;;;;;;;11.75;5.90;;;;;;;-0.23;100.00;100215.03;5021715;28;20171;-68
2023/01/19 05:16:24;;;;;;;10.93;5.97;;;;;;;-0.22;100.00;100211.69;5022751;28;20163;-68
2023/01/19 05:18:50;;;;;;;9.68;5.85;;;;;;;-0.21;100.00;100204.88;5020033;28;20045;-68
2023/01/19 05:21:15;;;;;;;10.52;6.15;;;;;;;-0.20;100.00;100207.53;5021214;28;20411;-68
2023/01/19 05:23:40;;;;;;;9.68;5.97;;;;;;;-0.18;100.00;100218.72;5022166;28;20029;-68
2023/01/19 05:26:06;;;;;;;9.68;5.45;;;;;;;-0.18;100.00;100208.47;5021628;28;20223;-68
2023/01/19 05:28:32;;;;;;;11.02;6.25;;;;;;;-0.15;100.00;100222.28;5022587;28;20104;-68
2023/01/19 05:30:57;;;;;;;9.73;5.72;;;;;;;-0.16;100.00;100223.06;5020745;28;20506;-68
2023/01/19 05:33:23;;;;;;;10.60;5.18;;;;;;;-0.15;100.00;100232.50;5021039;28;20030;-68
2023/01/19 05:35:50;;;;;;;11.45;5.85;;;;;;;-0.18;100.00;100236.66;5021264;28;20029;-68
2023/01/19 05:38:16;;;;;;;11.43;6.15;;;;;;;-0.17;100.00;100250.34;5021852;28;20732;-68
2023/01/19 05:40:41;;;;;;;13.18;7.05;;;;;;;-0.15;100.00;100242.75;5022257;28;20028;-69
2023/01/19 05:43:07;;;;;;;13.40;7.57;;;;;;;-0.15;100.00;100245.31;5021897;28;20029;-69
2023/01/19 05:45:33;;;;;;;15.82;8.05;;;;;;;-0.16;100.00;100236.72;5022577;28;20405;-69
2023/01/19 05:47:59;;;;;;;16.92;8.98;;;;;;;-0.13;100.00;100248.84;5020799;28;20092;-69
2023/01/19 05:50:24;;;;;;;17.33;8.90;;;;;;;-0.12;100.00;100250.59;5020274;28;20033;-69
2023/01/19 05:52:52;;;;;;;20.15;8.98;;;;;;;-0.09;100.00;100255.91;5022270;28;20461;-69
2023/01/19 05:55:18;;;;;;;19.23;9.95;;;;;;;-0.09;100.00;100254.22;5021511;28;20034;-69
2023/01/19 05:57:43;;;;;;;16.52;8.43;;;;;;;-0.07;100.00;100256.88;5022901;28;20104;-69
2023/01/19 06:00:09;;;;;;;17.27;9.18;;;;;;;-0.05;100.00;100250.16;5026174;28;20136;-68
2023/01/19 06:02:34;;;;;;;18.73;9.07;;;;;;;-0.02;100.00;100260.56;5026224;28;20392;-68
2023/01/19 06:04:59;;;;;;;16.98;8.90;;;;;;;-0.03;100.00;100264.81;5025680;28;20495;-69
2023/01/19 06:07:25;;;;;;;17.98;9.30;;;;;;;0.00;100.00;100264.13;5026124;28;20368;-68
2023/01/19 06:09:50;;;;;;;19.50;10.40;;;;;;;0.02;100.00;100270.19;5026607;28;20028;-68
2023/01/19 06:12:15;;;;;;;18.63;10.02;;;;;;;0.02;100.00;100259.94;5026381;28;20033;-69
2023/01/19 06:14:41;;;;;;;19.25;10.43;;;;;;;0.01;100.00;100260.75;5025176;28;20025;-69
2023/01/19 06:17:06;;;;;;;20.73;10.77;;;;;;;0.03;100.00;100268.50;5026311;28;20435;-69
2023/01/19 06:19:32;;;;;;;18.25;10.43;;;;;;;0.03;100.00;100277.09;5024779;28;20029;-69
2023/01/19 06:21:57;;;;;;;20.08;10.68;;;;;;;0.03;100.00;100278.75;5025674;28;20029;-68
2023/01/19 06:24:24;;;;;;;20.70;10.35;;;;;;;0.04;100.00;100275.41;5023627;28;20029;-69
2023/01/19 06:26:49;;;;;;;20.75;11.00;;;;;;;0.02;100.00;100280.44;5025296;28;20040;-68
2023/01/19 06:29:15;;;;;;;20.25;11.45;;;;;;;0.02;100.00;100284.69;5024963;28;20096;-68
2023/01/19 06:31:40;;;;;;;21.02;11.45;;;;;;;0.03;100.00;100286.44;5025546;28;20029;-68
2023/01/19 06:34:06;;;;;;;25.48;13.43;;;;;;;0.02;100.00;100295.81;5023822;28;20414;-68
2023/01/19 06:36:31;;;;;;;23.08;13.63;;;;;;;0.03;100.00;100296.69;5023752;28;20530;-68
2023/01/19 06:38:57;;;;;;;23.80;13.98;;;;;;;0.03;100.00;100302.72;5023985;28;20029;-68
2023/01/19 06:41:22;;;;;;;28.02;16.30;;;;;;;0.06;100.00;100296.84;5024680;28;20134;-68
2023/01/19 06:43:47;;;;;;;28.95;16.67;;;;;;;0.06;100.00;100304.53;5024232;28;20454;-68
2023/01/19 06:46:13;;;;;;;31.02;17.88;;;;;;;0.07;100.00;100309.75;5023886;28;20034;-68
2023/01/19 06:48:38;;;;;;;30.33;17.55;;;;;;;0.08;100.00;100313.22;5022621;28;20053;-68
2023/01/19 06:51:05;;;;;;;32.10;17.92;;;;;;;0.07;100.00;100317.44;5023815;28;20036;-68
2023/01/19 06:53:30;;;;;;;30.67;17.85;;;;;;;0.07;100.00;100320.00;5024251;28;20032;-68
2023/01/19 06:56:00;;;;;;;31.38;19.05;;;;;;;0.07;100.00;100325.13;5024303;28;20037;-68
2023/01/19 06:58:27;;;;;;;33.05;19.02;;;;;;;0.07;100.00;100321.69;5024244;28;20115;-68
2023/01/19 07:00:53;;;;;;;36.13;20.17;;;;;;;0.09;100.00;100332.91;5024365;28;20048;-68
2023/01/19 07:03:20;;;;;;;39.08;21.50;;;;;;;0.09;100.00;100336.34;5022653;28;20033;-68
2023/01/19 07:05:48;;;;;;;40.65;21.95;;;;;;;0.11;100.00;100326.19;5022630;28;20033;-68
2023/01/19 07:08:14;;;;;;;40.20;22.73;;;;;;;0.12;100.00;100336.50;5024069;28;20030;-68
2023/01/19 07:10:39;;;;;;;44.22;22.80;;;;;;;0.13;100.00;100332.25;5024324;28;20021;-68
2023/01/19 07:13:05;;;;;;;38.90;22.65;;;;;;;0.14;100.00;100347.72;5024451;28;21074;-68
2023/01/19 07:15:30;;;;;;;40.60;21.83;;;;;;;0.15;100.00;100335.81;5025080;28;20040;-68
2023/01/19 07:18:00;;;;;;;41.95;22.63;;;;;;;0.17;100.00;100347.94;5024719;28;20041;-68
2023/01/19 07:20:25;;;;;;;42.50;23.15;;;;;;;0.19;100.00;100341.97;5024500;28;20069;-68
2023/01/19 07:22:55;;;;;;;41.15;22.05;;;;;;;0.20;100.00;100347.19;5025378;28;20137;-68
2023/01/19 07:25:21;;;;;;;41.38;22.10;;;;;;;0.22;100.00;100360.09;5024872;28;20048;-68
2023/01/19 07:27:46;;;;;;;40.20;21.15;;;;;;;0.23;100.00;100359.31;5023764;28;20403;-68
2023/01/19 07:30:14;;;;;;;41.00;21.27;;;;;;;0.25;100.00;100360.28;5024409;28;20118;-68
2023/01/19 07:32:41;;;;;;;44.65;22.65;;;;;;;0.28;100.00;100363.03;5024919;28;20546;-68
2023/01/19 07:35:09;;;;;;;42.67;22.10;;;;;;;0.29;100.00;100364.75;5024509;28;20025;-68
2023/01/19 07:37:34;;;;;;;44.53;22.75;;;;;;;0.31;100.00;100370.88;5024741;28;20127;-68
2023/01/19 07:40:00;;;;;;;45.38;23.05;;;;;;;0.33;100.00;100371.84;5024434;28;20026;-68
2023/01/19 07:42:26;;;;;;;43.50;23.90;;;;;;;0.35;100.00;100372.81;5021678;28;20290;-68
2023/01/19 07:44:51;;;;;;;44.15;23.65;;;;;;;0.37;100.00;100373.78;5022752;28;20518;-68
2023/01/19 07:47:16;;;;;;;47.15;22.83;;;;;;;0.37;100.00;100381.47;5022872;28;20490;-68
2023/01/19 07:49:42;;;;;;;43.78;23.20;;;;;;;0.38;100.00;100390.03;5023588;28;20090;-68
2023/01/19 07:52:08;;;;;;;46.72;23.17;;;;;;;0.37;100.00;100391.72;5021896;28;20080;-68
2023/01/19 07:54:33;;;;;;;42.60;21.98;;;;;;;0.36;100.00;100395.06;5021816;28;20021;-68
2023/01/19 07:56:59;;;;;;;45.08;22.40;;;;;;;0.34;100.00;100399.25;5022058;28;20032;-68
2023/01/19 07:59:26;;;;;;;46.22;22.50;;;;;;;0.31;100.00;100396.50;5019167;28;20164;-68
2023/01/19 08:01:52;;;;;;;42.53;22.48;;;;;;;0.29;100.00;100398.06;5021893;28;20087;-68
2023/01/19 08:04:18;;;;;;;44.70;21.73;;;;;;;0.28;100.00;100406.59;5022845;28;20054;-68
2023/01/19 08:06:45;;;;;;;45.67;22.52;;;;;;;0.27;100.00;100408.25;5022793;28;20036;-68
2023/01/19 08:09:10;;;;;;;45.30;22.05;;;;;;;0.27;100.00;100408.25;5024536;28;20033;-68
2023/01/19 08:11:36;;;;;;;41.72;21.98;;;;;;;0.27;100.00;100409.94;5022355;28;20043;-68
2023/01/19 08:14:01;;;;;;;39.75;20.65;;;;;;;0.29;100.00;100416.00;5021756;28;20055;-68
2023/01/19 08:16:27;;;;;;;39.15;20.20;;;;;;;0.27;100.00;100417.63;5022451;28;20024;-68
2023/01/19 08:18:52;;;;;;;40.83;21.58;;;;;;;0.26;100.00;100415.84;5023055;28;20018;-68
2023/01/19 08:21:17;;;;;;;46.05;21.48;;;;;;;0.26;100.00;100427.00;5023726;28;20476;-68
2023/01/19 08:23:43;;;;;;;48.35;21.85;;;;;;;0.26;100.00;100429.56;5023608;28;20037;-68
2023/01/19 08:26:19;;;;;;;44.38;20.52;;;;;;;0.26;100.00;100439.81;5021919;28;20034;-68
2023/01/19 08:28:44;;;;;;;52.33;22.17;;;;;;;0.27;100.00;100440.69;5022994;28;20030;-68
2023/01/19 08:31:09;;;;;;;48.75;22.17;;;;;;;0.29;100.00;100449.31;5020021;28;20075;-68
2023/01/19 08:33:35;;;;;;;47.28;21.35;;;;;;;0.31;100.00;100450.31;5023299;28;20033;-68
2023/01/19 08:36:00;;;;;;;43.72;20.73;;;;;;;0.33;100.00;100453.84;5022970;28;20028;-68
2023/01/19 08:38:25;;;;;;;51.33;23.10;;;;;;;0.34;100.00;100458.19;5023569;28;20033;-68
2023/01/19 08:40:51;;;;;;;48.40;22.00;;;;;;;0.34;100.00;100459.06;5021740;28;20029;-68
2023/01/19 08:43:17;;;;;;;50.33;22.45;;;;;;;0.37;100.00;100457.47;5022822;28;20032;-68
2023/01/19 08:45:48;;;;;;;53.97;22.10;;;;;;;0.37;100.00;100467.72;5020958;28;20036;-68
2023/01/19 08:48:15;;;;;;;45.30;20.48;;;;;;;0.38;100.00;100472.03;5021585;28;20029;-68
2023/01/19 08:50:40;;;;;;;49.92;21.38;;;;;;;0.36;100.00;100474.50;5019076;28;20021;-68
2023/01/19 08:53:06;;;;;;;45.78;21.83;;;;;;;0.36;100.00;100471.94;5021650;28;20029;-68
2023/01/19 08:55:33;;;;;;;54.72;21.95;;;;;;;0.37;100.00;100480.53;5020867;28;20211;-68
2023/01/19 08:57:58;;;;;;;51.33;22.55;;;;;;;0.39;100.00;100484.06;5021216;28;20053;-68
2023/01/19 09:00:25;;;;;;;51.80;21.60;;;;;;;0.39;100.00;100479.84;5022427;28;20072;-68
2023/01/19 09:02:51;;;;;;;53.50;22.65;;;;;;;0.40;100.00;100486.72;5021731;28;20040;-68
2023/01/19 09:05:16;;;;;;;55.92;22.02;;;;;;;0.44;100.00;100493.78;5020698;28;20030;-69
2023/01/19 09:07:45;;;;;;;60.97;21.88;;;;;;;0.45;100.00;100493.00;5022179;28;20036;-68
2023/01/19 09:10:10;;;;;;;57.67;23.73;;;;;;;0.46;100.00;100497.31;5022555;28;20108;-68
2023/01/19 09:12:36;;;;;;;54.40;22.60;;;;;;;0.49;100.00;100492.41;5023058;28;20112;-68
2023/01/19 09:15:01;;;;;;;56.05;23.48;;;;;;;0.51;100.00;100495.06;5021535;28;20378;-68
2023/01/19 09:17:26;;;;;;;54.80;23.35;;;;;;;0.52;100.00;100500.25;5019873;28;20079;-69
2023/01/19 09:19:52;;;;;;;55.63;23.17;;;;;;;0.51;100.00;100503.63;5020876;28;20061;-68
2023/01/19 09:22:17;;;;;;;57.30;23.92;;;;;;;0.49;100.00;100499.19;5020643;28;20495;-69
2023/01/19 09:24:42;;;;;;;58.35;24.13;;;;;;;0.51;100.00;100500.19;5021074;28;20113;-69
2023/01/19 09:27:07;;;;;;;53.13;23.08;;;;;;;0.54;100.00;100500.34;5018974;28;20033;-69
2023/01/19 09:29:33;;;;;;;53.30;24.08;;;;;;;0.57;100.00;100500.53;5017987;28;20082;-69
2023/01/19 09:31:58;;;;;;;62.20;23.95;;;;;;;0.59;100.00;100510.88;5022172;28;20040;-69
2023/01/19 09:34:26;;;;;;;55.20;23.05;;;;;;;0.63;100.00;100502.56;5026285;28;20376;-69
2023/01/19 09:36:52;;;;;;;55.75;23.30;;;;;;;0.69;100.00;100513.16;5025660;28;20026;-69
2023/01/19 09:39:17;;;;;;;53.65;23.08;;;;;;;0.71;100.00;100506.47;5025744;28;20035;-69
2023/01/19 09:41:50;;;;;;;56.97;23.77;;;;;;;0.70;100.00;100507.25;5027040;28;20040;-69
2023/01/19 09:44:27;;;;;;;52.08;22.70;;;;;;;0.73;100.00;100527.06;5026667;28;20534;-69
2023/01/19 09:46:52;;;;;;;50.40;21.73;;;;;;;0.74;100.00;100522.03;5026886;28;20397;-69
2023/01/19 09:49:33;;;;;;;47.40;22.60;;;;;;;0.76;100.00;100522.09;5027037;28;20366;-69
2023/01/19 09:51:59;;;;;;;50.88;22.65;;;;;;;0.76;100.00;100528.09;5026630;28;20491;-69
2023/01/19 09:54:51;;;;;;;51.47;21.10;;;;;;;0.79;100.00;100543.66;5026764;28;20060;-69
2023/01/19 09:57:17;;;;;;;43.38;20.70;;;;;;;0.82;100.00;100535.28;5027134;28;20057;-69
2023/01/19 09:59:46;;;;;;;49.50;20.92;;;;;;;0.85;100.00;100538.00;5026095;28;20094;-69
2023/01/19 10:02:20;;;;;;;46.45;19.58;;;;;;;0.90;100.00;100538.28;5025821;28;20030;-69
2023/01/19 10:05:08;;;;;;;43.72;19.52;;;;;;;0.93;100.00;100541.91;5025197;28;20124;-69
2023/01/19 10:08:04;;;;;;;42.45;19.20;;;;;;;0.96;100.00;100536.94;5020416;28;20064;-69
2023/01/19 10:10:31;;;;;;;40.53;20.42;;;;;;;1.03;100.00;100543.34;5024523;28;20113;-69
2023/01/19 10:13:27;;;;;;;38.45;18.92;;;;;;;1.08;100.00;100554.72;5025011;28;20025;-70
2023/01/19 10:16:20;;;;;;;40.20;19.00;;;;;;;1.14;100.00;100552.50;5025328;28;20025;-69
2023/01/19 10:18:50;;;;;;;38.97;18.33;;;;;;;1.17;100.00;100547.56;5025157;28;20041;-69
2023/01/19 10:21:21;;;;;;;42.28;19.80;;;;;;;1.18;100.00;100554.44;5025409;28;20029;-69
2023/01/19 10:24:08;;;;;;;41.97;19.35;;;;;;;1.16;100.00;100547.44;5023576;28;20282;-69
2023/01/19 10:26:39;;;;;;;42.13;18.42;;;;;;;1.13;100.00;100558.44;5025271;28;20552;-69
2023/01/19 10:29:18;;;;;;;42.33;19.10;;;;;;;1.14;100.00;100551.63;5024485;28;20514;-69
2023/01/19 10:31:45;;;;;;;39.65;18.65;;;;;;;1.15;100.00;100556.84;5025438;28;20029;-69
2023/01/19 10:34:17;;;;;;;43.70;19.67;;;;;;;1.16;100.00;100550.91;5025871;28;20065;-69
2023/01/19 10:36:44;;;;;;;40.92;18.60;;;;;;;1.17;100.00;100546.66;5023534;28;20033;-69
2023/01/19 10:39:14;;;;;;;35.53;18.02;;;;;;;1.15;100.00;100553.41;5024515;28;20420;-69
2023/01/19 10:41:50;;;;;;;39.63;18.90;;;;;;;1.18;100.00;100557.00;5021261;28;20491;-69
2023/01/19 10:44:27;;;;;;;39.92;18.23;;;;;;;1.18;100.00;100554.44;5022874;28;20104;-69
2023/01/19 10:46:55;;;;;;;37.33;17.20;;;;;;;1.19;100.00;100556.22;5022542;28;20042;-70
2023/01/19 10:49:27;;;;;;;34.05;17.42;;;;;;;1.21;100.00;100554.59;5024003;28;20022;-70
2023/01/19 10:51:55;;;;;;;34.45;17.35;;;;;;;1.24;100.00;100555.59;5022941;28;20033;-69
2023/01/19 10:54:21;;;;;;;35.42;17.40;;;;;;;1.26;100.00;100554.00;5023492;28;20022;-69
2023/01/19 10:56:55;;;;;;;33.88;17.42;;;;;;;1.29;100.00;100559.28;5025566;28;20022;-66
2023/01/19 10:59:36;;;;;;;36.05;18.13;;;;;;;1.31;100.00;100560.28;5025546;28;20049;-66
2023/01/19 11:02:25;;;;;;;36.00;16.75;;;;;;;1.37;100.00;100560.63;5024128;28;20029;-66
2023/01/19 11:04:52;;;;;;;36.80;17.27;;;;;;;1.41;100.00;100557.44;5025264;28;20083;-66
2023/01/19 11:07:35;;;;;;;34.92;17.95;;;;;;;1.45;100.00;100556.81;5025639;28;20025;-66
2023/01/19 11:10:11;;;;;;;36.53;17.75;;;;;;;1.46;100.00;100558.53;5024698;28;20021;-66
2023/01/19 11:13:01;;;;;;;36.75;17.60;;;;;;;1.48;100.00;100556.97;5024044;28;20033;-66
2023/01/19 11:15:31;;;;;;;34.40;16.85;;;;;;;1.51;100.00;100553.69;5017655;28;20044;-66
2023/01/19 11:17:57;;;;;;;37.13;17.83;;;;;;;1.53;100.00;100562.34;5025399;28;20545;-66
2023/01/19 11:20:32;;;;;;;38.63;17.90;;;;;;;1.56;100.00;100552.25;5025073;28;20033;-66
2023/01/19 11:23:16;;;;;;;38.28;17.98;;;;;;;1.58;100.00;100548.09;5024765;28;20028;-66
2023/01/19 11:25:46;;;;;;;37.05;18.08;;;;;;;1.60;100.00;100553.31;5024180;28;20036;-65